sensor_id;sensor_type;location;lat;lon;timestamp;pressure;altitude;pressure_sealevel;temperature;humidity
66880;BME280;53789;51.392;10.234;2023-01-27T00:00:12;98648.00;;;0.12;82.16
66880;BME280;53789;51.392;10.234;2023-01-27T00:00:33;98646.38;;;0.11;83.02
66880;BME280;53789;51.392;10.234;2023-01-27T00:00:53;98649.09;;;0.11;83.45
66880;BME280;53789;51.392;10.234;2023-01-27T00:01:15;98651.78;;;0.11;83.12
66880;BME280;53789;51.392;10.234;2023-01-27T00:01:35;98648.25;;;0.11;82.64
66880;BME280;53789;51.392;10.234;2023-01-27T00:01:56;98645.19;;;0.07;83.08
66880;BME280;53789;51.392;10.234;2023-01-27T00:02:16;98650.13;;;0.10;83.45
66880;BME280;53789;51.392;10.234;2023-01-27T00:02:37;98645.75;;;0.09;82.38
66880;BME280;53789;51.392;10.234;2023-01-27T00:02:57;98652.03;;;0.10;82.90
66880;BME280;53789;51.392;10.234;2023-01-27T00:03:19;98648.47;;;0.09;82.47
66880;BME280;53789;51.392;10.234;2023-01-27T00:03:39;98646.63;;;0.10;82.83
66880;BME280;53789;51.392;10.234;2023-01-27T00:03:59;98643.06;;;0.09;82.34
66880;BME280;53789;51.392;10.234;2023-01-27T00:04:20;98648.25;;;0.11;82.54
66880;BME280;53789;51.392;10.234;2023-01-27T00:04:40;98648.47;;;0.09;82.96
66880;BME280;53789;51.392;10.234;2023-01-27T00:05:00;98644.94;;;0.09;82.97
66880;BME280;53789;51.392;10.234;2023-01-27T00:05:21;98649.31;;;0.10;83.48
66880;BME280;53789;51.392;10.234;2023-01-27T00:05:41;98645.53;;;0.11;83.54
66880;BME280;53789;51.392;10.234;2023-01-27T00:06:01;98645.75;;;0.09;83.26
66880;BME280;53789;51.392;10.234;2023-01-27T00:06:22;98648.25;;;0.11;83.55
66880;BME280;53789;51.392;10.234;2023-01-27T00:06:42;98652.03;;;0.10;83.25
66880;BME280;53789;51.392;10.234;2023-01-27T00:07:02;98652.03;;;0.10;82.38
66880;BME280;53789;51.392;10.234;2023-01-27T00:07:23;98652.03;;;0.10;83.35
66880;BME280;53789;51.392;10.234;2023-01-27T00:07:43;98652.03;;;0.10;83.17
66880;BME280;53789;51.392;10.234;2023-01-27T00:08:04;98659.28;;;0.09;83.74
66880;BME280;53789;51.392;10.234;2023-01-27T00:08:24;98648.69;;;0.08;82.51
66880;BME280;53789;51.392;10.234;2023-01-27T00:08:44;98650.59;;;0.07;83.51
66880;BME280;53789;51.392;10.234;2023-01-27T00:09:04;98657.66;;;0.08;83.49
66880;BME280;53789;51.392;10.234;2023-01-27T00:09:25;98654.34;;;0.06;83.37
66880;BME280;53789;51.392;10.234;2023-01-27T00:09:45;98647.03;;;0.07;82.90
66880;BME280;53789;51.392;10.234;2023-01-27T00:10:06;98648.13;;;0.05;83.46
66880;BME280;53789;51.392;10.234;2023-01-27T00:10:26;98650.59;;;0.07;82.61
66880;BME280;53789;51.392;10.234;2023-01-27T00:10:47;98646.22;;;0.06;82.83
66880;BME280;53789;51.392;10.234;2023-01-27T00:11:07;98645.19;;;0.07;83.33
66880;BME280;53789;51.392;10.234;2023-01-27T00:11:28;98646.22;;;0.06;83.06
66880;BME280;53789;51.392;10.234;2023-01-27T00:11:48;98654.34;;;0.06;82.34
66880;BME280;53789;51.392;10.234;2023-01-27T00:12:18;98647.88;;;0.07;83.61
66880;BME280;53789;51.392;10.234;2023-01-27T00:12:39;98655.16;;;0.07;82.64
66880;BME280;53789;51.392;10.234;2023-01-27T00:13:00;98657.03;;;0.06;82.61
66880;BME280;53789;51.392;10.234;2023-01-27T00:13:20;98645.41;;;0.05;83.65
66880;BME280;53789;51.392;10.234;2023-01-27T00:13:40;98645.19;;;0.07;83.35
66880;BME280;53789;51.392;10.234;2023-01-27T00:14:00;98644.13;;;0.08;83.15
66880;BME280;53789;51.392;10.234;2023-01-27T00:14:21;98649.75;;;0.07;82.84
66880;BME280;53789;51.392;10.234;2023-01-27T00:14:42;98648.13;;;0.05;82.59
66880;BME280;53789;51.392;10.234;2023-01-27T00:15:03;98648.13;;;0.05;82.53
66880;BME280;53789;51.392;10.234;2023-01-27T00:15:23;98658.94;;;0.05;82.79
66880;BME280;53789;51.392;10.234;2023-01-27T00:15:44;98653.53;;;0.05;83.28
66880;BME280;53789;51.392;10.234;2023-01-27T00:16:04;98652.69;;;0.05;83.24
66880;BME280;53789;51.392;10.234;2023-01-27T00:16:25;98653.53;;;0.05;83.30
66880;BME280;53789;51.392;10.234;2023-01-27T00:16:45;98653.53;;;0.05;82.79
66880;BME280;53789;51.392;10.234;2023-01-27T00:17:05;98645.63;;;0.04;82.77
66880;BME280;53789;51.392;10.234;2023-01-27T00:17:26;98651.03;;;0.04;83.32
66880;BME280;53789;51.392;10.234;2023-01-27T00:17:46;98651.03;;;0.04;82.55
66880;BME280;53789;51.392;10.234;2023-01-27T00:18:07;98651.84;;;0.04;82.43
66880;BME280;53789;51.392;10.234;2023-01-27T00:18:27;98649.38;;;0.03;82.55
66880;BME280;53789;51.392;10.234;2023-01-27T00:18:47;98651.03;;;0.04;83.84
66880;BME280;53789;51.392;10.234;2023-01-27T00:19:07;98651.28;;;0.02;82.87
66880;BME280;53789;51.392;10.234;2023-01-27T00:19:28;98652.91;;;0.03;83.95
66880;BME280;53789;51.392;10.234;2023-01-27T00:19:48;98650.19;;;0.03;84.28
66880;BME280;53789;51.392;10.234;2023-01-27T00:20:10;98656.47;;;0.04;83.80
66880;BME280;53789;51.392;10.234;2023-01-27T00:20:31;98657.50;;;0.03;83.35
66880;BME280;53789;51.392;10.234;2023-01-27T00:20:51;98653.97;;;0.02;83.71
66880;BME280;53789;51.392;10.234;2023-01-27T00:21:12;98652.09;;;0.03;83.00
66880;BME280;53789;51.392;10.234;2023-01-27T00:21:32;98652.31;;;0.01;83.48
66880;BME280;53789;51.392;10.234;2023-01-27T00:21:52;98653.13;;;0.02;83.49
66880;BME280;53789;51.392;10.234;2023-01-27T00:22:13;98653.38;;;0.00;83.73
66880;BME280;53789;51.392;10.234;2023-01-27T00:22:33;98647.13;;;-0.00;83.11
66880;BME280;53789;51.392;10.234;2023-01-27T00:22:53;98656.06;;;0.00;83.00
66880;BME280;53789;51.392;10.234;2023-01-27T00:23:14;98654.22;;;0.01;82.97
66880;BME280;53789;51.392;10.234;2023-01-27T00:23:36;98648.81;;;0.01;83.18
66880;BME280;53789;51.392;10.234;2023-01-27T00:23:56;98654.22;;;0.01;83.95
66880;BME280;53789;51.392;10.234;2023-01-27T00:24:16;98651.50;;;0.01;83.75
66880;BME280;53789;51.392;10.234;2023-01-27T00:24:36;98647.72;;;0.02;83.60
66880;BME280;53789;51.392;10.234;2023-01-27T00:24:57;98652.31;;;0.01;82.70
66880;BME280;53789;51.392;10.234;2023-01-27T00:25:17;98648.56;;;0.02;84.04
66880;BME280;53789;51.392;10.234;2023-01-27T00:25:38;98646.09;;;0.01;83.48
66880;BME280;53789;51.392;10.234;2023-01-27T00:25:58;98641.28;;;0.03;83.06
66880;BME280;53789;51.392;10.234;2023-01-27T00:26:18;98646.44;;;0.04;84.17
66880;BME280;53789;51.392;10.234;2023-01-27T00:26:39;98644.78;;;0.03;82.99
66880;BME280;53789;51.392;10.234;2023-01-27T00:26:59;98642.94;;;0.04;83.92
66880;BME280;53789;51.392;10.234;2023-01-27T00:27:19;98652.69;;;0.05;83.76
66880;BME280;53789;51.392;10.234;2023-01-27T00:27:40;98644.56;;;0.05;83.40
66880;BME280;53789;51.392;10.234;2023-01-27T00:28:00;98637.28;;;0.05;83.58
66880;BME280;53789;51.392;10.234;2023-01-27T00:28:21;98647.28;;;0.05;83.76
66880;BME280;53789;51.392;10.234;2023-01-27T00:28:42;98640.00;;;0.05;82.87
66880;BME280;53789;51.392;10.234;2023-01-27T00:29:03;98638.09;;;0.06;82.80
66880;BME280;53789;51.392;10.234;2023-01-27T00:29:23;98645.19;;;0.07;82.90
66880;BME280;53789;51.392;10.234;2023-01-27T00:29:43;98646.22;;;0.06;84.21
66880;BME280;53789;51.392;10.234;2023-01-27T00:30:05;98638.72;;;0.08;84.06
66880;BME280;53789;51.392;10.234;2023-01-27T00:30:25;98639.78;;;0.07;83.05
66880;BME280;53789;51.392;10.234;2023-01-27T00:30:46;98649.31;;;0.10;84.00
66880;BME280;53789;51.392;10.234;2023-01-27T00:31:08;98648.47;;;0.09;83.19
66880;BME280;53789;51.392;10.234;2023-01-27T00:31:28;98643.91;;;0.10;82.84
66880;BME280;53789;51.392;10.234;2023-01-27T00:31:49;98643.91;;;0.10;83.61
66880;BME280;53789;51.392;10.234;2023-01-27T00:32:09;98645.53;;;0.11;82.64
66880;BME280;53789;51.392;10.234;2023-01-27T00:32:30;98634.94;;;0.09;83.14
66880;BME280;53789;51.392;10.234;2023-01-27T00:32:50;98642.00;;;0.10;83.94
66880;BME280;53789;51.392;10.234;2023-01-27T00:33:11;98633.91;;;0.10;83.22
66880;BME280;53789;51.392;10.234;2023-01-27T00:33:31;98644.50;;;0.12;82.97
66880;BME280;53789;51.392;10.234;2023-01-27T00:33:51;98637.19;;;0.12;83.69
66880;BME280;53789;51.392;10.234;2023-01-27T00:34:12;98633.91;;;0.10;83.16
66880;BME280;53789;51.392;10.234;2023-01-27T00:34:32;98640.75;;;0.13;83.54
66880;BME280;53789;51.392;10.234;2023-01-27T00:34:52;98645.31;;;0.12;83.02
66880;BME280;53789;51.392;10.234;2023-01-27T00:35:13;98639.91;;;0.12;82.99
66880;BME280;53789;51.392;10.234;2023-01-27T00:35:33;98643.44;;;0.13;82.79
66880;BME280;53789;51.392;10.234;2023-01-27T00:36:04;98637.19;;;0.12;82.88
66880;BME280;53789;51.392;10.234;2023-01-27T00:36:25;98644.25;;;0.13;82.84
66880;BME280;53789;51.392;10.234;2023-01-27T00:36:45;98648.63;;;0.14;82.99
66880;BME280;53789;51.392;10.234;2023-01-27T00:37:05;98648.63;;;0.14;82.31
66880;BME280;53789;51.392;10.234;2023-01-27T00:37:26;98642.59;;;0.12;83.17
66880;BME280;53789;51.392;10.234;2023-01-27T00:37:47;98640.75;;;0.13;82.45
66880;BME280;53789;51.392;10.234;2023-01-27T00:38:07;98641.56;;;0.13;82.94
66880;BME280;53789;51.392;10.234;2023-01-27T00:38:30;98640.75;;;0.13;82.99
66880;BME280;53789;51.392;10.234;2023-01-27T00:38:50;98637.19;;;0.12;82.84
66880;BME280;53789;51.392;10.234;2023-01-27T00:39:11;98643.44;;;0.13;83.33
66880;BME280;53789;51.392;10.234;2023-01-27T00:39:32;98643.44;;;0.13;82.98
66880;BME280;53789;51.392;10.234;2023-01-27T00:39:52;98641.56;;;0.13;83.27
66880;BME280;53789;51.392;10.234;2023-01-27T00:40:15;98640.75;;;0.13;83.63
66880;BME280;53789;51.392;10.234;2023-01-27T00:40:35;98642.38;;;0.14;82.48
66880;BME280;53789;51.392;10.234;2023-01-27T00:40:56;98637.81;;;0.14;83.82
66880;BME280;53789;51.392;10.234;2023-01-27T00:41:16;98645.06;;;0.14;82.79
66880;BME280;53789;51.392;10.234;2023-01-27T00:41:37;98642.38;;;0.14;82.59
66880;BME280;53789;51.392;10.234;2023-01-27T00:41:58;98638.84;;;0.13;82.62
66880;BME280;53789;51.392;10.234;2023-01-27T00:42:18;98638.84;;;0.13;82.27
66880;BME280;53789;51.392;10.234;2023-01-27T00:42:39;98638.03;;;0.13;82.87
66880;BME280;53789;51.392;10.234;2023-01-27T00:42:59;98637.19;;;0.12;82.48
66880;BME280;53789;51.392;10.234;2023-01-27T00:43:19;98640.97;;;0.11;83.23
66880;BME280;53789;51.392;10.234;2023-01-27T00:43:40;98643.44;;;0.13;83.71
66880;BME280;53789;51.392;10.234;2023-01-27T00:44:01;98636.38;;;0.12;83.39
66880;BME280;53789;51.392;10.234;2023-01-27T00:44:22;98638.03;;;0.13;82.44
66880;BME280;53789;51.392;10.234;2023-01-27T00:44:42;98639.09;;;0.12;83.07
66880;BME280;53789;51.392;10.234;2023-01-27T00:45:04;98645.31;;;0.12;83.50
66880;BME280;53789;51.392;10.234;2023-01-27T00:45:24;98640.75;;;0.13;83.40
66880;BME280;53789;51.392;10.234;2023-01-27T00:45:45;98638.25;;;0.11;83.78
66880;BME280;53789;51.392;10.234;2023-01-27T00:46:07;98636.16;;;0.13;82.41
66880;BME280;53789;51.392;10.234;2023-01-27T00:46:28;98636.97;;;0.14;82.60
66880;BME280;53789;51.392;10.234;2023-01-27T00:46:49;98636.16;;;0.13;82.56
66880;BME280;53789;51.392;10.234;2023-01-27T00:47:09;98646.75;;;0.15;83.31
66880;BME280;53789;51.392;10.234;2023-01-27T00:47:29;98641.31;;;0.15;83.50
66880;BME280;53789;51.392;10.234;2023-01-27T00:47:50;98643.22;;;0.14;83.00
66880;BME280;53789;51.392;10.234;2023-01-27T00:48:10;98638.63;;;0.15;82.99
66880;BME280;53789;51.392;10.234;2023-01-27T00:48:31;98641.91;;;0.17;82.96
66880;BME280;53789;51.392;10.234;2023-01-27T00:48:52;98648.16;;;0.17;83.01
66880;BME280;53789;51.392;10.234;2023-01-27T00:49:12;98645.47;;;0.17;82.57
66880;BME280;53789;51.392;10.234;2023-01-27T00:49:32;98645.47;;;0.17;82.77
66880;BME280;53789;51.392;10.234;2023-01-27T00:49:53;98650.03;;;0.17;82.27
66880;BME280;53789;51.392;10.234;2023-01-27T00:50:13;98648.16;;;0.17;82.29
66880;BME280;53789;51.392;10.234;2023-01-27T00:50:34;98648.16;;;0.17;83.28
66880;BME280;53789;51.392;10.234;2023-01-27T00:50:54;98647.09;;;0.18;82.17
66880;BME280;53789;51.392;10.234;2023-01-27T00:51:14;98640.06;;;0.17;83.54
66880;BME280;53789;51.392;10.234;2023-01-27T00:51:35;98652.50;;;0.18;82.55
66880;BME280;53789;51.392;10.234;2023-01-27T00:51:55;98645.22;;;0.19;82.86
66880;BME280;53789;51.392;10.234;2023-01-27T00:52:15;98642.75;;;0.17;82.55
66880;BME280;53789;51.392;10.234;2023-01-27T00:52:36;98640.88;;;0.18;83.52
66880;BME280;53789;51.392;10.234;2023-01-27T00:52:56;98640.88;;;0.18;82.45
66880;BME280;53789;51.392;10.234;2023-01-27T00:53:16;98644.63;;;0.17;83.78
66880;BME280;53789;51.392;10.234;2023-01-27T00:53:37;98641.69;;;0.18;82.30
66880;BME280;53789;51.392;10.234;2023-01-27T00:53:57;98642.75;;;0.17;83.22
66880;BME280;53789;51.392;10.234;2023-01-27T00:54:17;98643.81;;;0.16;82.66
66880;BME280;53789;51.392;10.234;2023-01-27T00:54:38;98643.56;;;0.18;82.23
66880;BME280;53789;51.392;10.234;2023-01-27T00:54:58;98644.63;;;0.17;83.39
66880;BME280;53789;51.392;10.234;2023-01-27T00:55:18;98640.88;;;0.18;83.76
66880;BME280;53789;51.392;10.234;2023-01-27T00:55:39;98634.63;;;0.17;82.83
66880;BME280;53789;51.392;10.234;2023-01-27T00:55:59;98640.28;;;0.16;83.11
66880;BME280;53789;51.392;10.234;2023-01-27T00:56:19;98645.69;;;0.16;82.22
66880;BME280;53789;51.392;10.234;2023-01-27T00:56:39;98644.84;;;0.15;83.18
66880;BME280;53789;51.392;10.234;2023-01-27T00:57:00;98647.56;;;0.15;82.60
66880;BME280;53789;51.392;10.234;2023-01-27T00:57:20;98646.75;;;0.15;83.08
66880;BME280;53789;51.392;10.234;2023-01-27T00:57:41;98644.03;;;0.15;83.23
66880;BME280;53789;51.392;10.234;2023-01-27T00:58:01;98645.06;;;0.14;82.81
66880;BME280;53789;51.392;10.234;2023-01-27T00:58:22;98645.31;;;0.12;83.30
66880;BME280;53789;51.392;10.234;2023-01-27T00:58:42;98645.06;;;0.14;83.20
66880;BME280;53789;51.392;10.234;2023-01-27T00:59:03;98643.69;;;0.11;82.67
66880;BME280;53789;51.392;10.234;2023-01-27T00:59:23;98640.13;;;0.11;82.32
66880;BME280;53789;51.392;10.234;2023-01-27T00:59:43;98632.00;;;0.11;82.36
66880;BME280;53789;51.392;10.234;2023-01-27T01:00:05;98642.84;;;0.11;83.09
66880;BME280;53789;51.392;10.234;2023-01-27T01:00:25;98643.06;;;0.09;83.10
66880;BME280;53789;51.392;10.234;2023-01-27T01:00:45;98646.00;;;0.08;82.19
66880;BME280;53789;51.392;10.234;2023-01-27T01:01:10;98642.47;;;0.07;82.95
66880;BME280;53789;51.392;10.234;2023-01-27T01:01:31;98646.84;;;0.08;82.69
66880;BME280;53789;51.392;10.234;2023-01-27T01:01:51;98645.19;;;0.07;83.62
66880;BME280;53789;51.392;10.234;2023-01-27T01:02:12;98646.00;;;0.08;83.76
66880;BME280;53789;51.392;10.234;2023-01-27T01:02:32;98642.47;;;0.07;83.81
66880;BME280;53789;51.392;10.234;2023-01-27T01:02:52;98643.53;;;0.06;82.83
66880;BME280;53789;51.392;10.234;2023-01-27T01:03:12;98647.88;;;0.07;83.69
66880;BME280;53789;51.392;10.234;2023-01-27T01:03:35;98638.72;;;0.08;83.54
66880;BME280;53789;51.392;10.234;2023-01-27T01:03:55;98646.00;;;0.08;83.25
66880;BME280;53789;51.392;10.234;2023-01-27T01:04:16;98642.25;;;0.09;83.66
66880;BME280;53789;51.392;10.234;2023-01-27T01:04:36;98642.47;;;0.07;83.33
66880;BME280;53789;51.392;10.234;2023-01-27T01:04:56;98648.47;;;0.09;83.88
66880;BME280;53789;51.392;10.234;2023-01-27T01:05:17;98649.31;;;0.10;82.77
66880;BME280;53789;51.392;10.234;2023-01-27T01:05:37;98643.69;;;0.11;83.23
66880;BME280;53789;51.392;10.234;2023-01-27T01:05:58;98642.84;;;0.11;82.77
66880;BME280;53789;51.392;10.234;2023-01-27T01:06:19;98651.78;;;0.11;84.06
66880;BME280;53789;51.392;10.234;2023-01-27T01:06:39;98648.84;;;0.13;82.43
66880;BME280;53789;51.392;10.234;2023-01-27T01:07:00;98648.00;;;0.12;83.63
66880;BME280;53789;51.392;10.234;2023-01-27T01:07:20;98645.06;;;0.14;83.78
66880;BME280;53789;51.392;10.234;2023-01-27T01:07:40;98645.91;;;0.14;83.57
66880;BME280;53789;51.392;10.234;2023-01-27T01:08:00;98645.06;;;0.14;82.52
66880;BME280;53789;51.392;10.234;2023-01-27T01:08:21;98643.44;;;0.13;83.14
66880;BME280;53789;51.392;10.234;2023-01-27T01:08:42;98645.91;;;0.14;83.69
66880;BME280;53789;51.392;10.234;2023-01-27T01:09:03;98643.22;;;0.14;82.93
66880;BME280;53789;51.392;10.234;2023-01-27T01:09:23;98645.91;;;0.14;82.32
66880;BME280;53789;51.392;10.234;2023-01-27T01:09:43;98647.78;;;0.14;82.95
66880;BME280;53789;51.392;10.234;2023-01-27T01:10:04;98646.97;;;0.13;82.32
66880;BME280;53789;51.392;10.234;2023-01-27T01:10:25;98640.97;;;0.11;83.10
66880;BME280;53789;51.392;10.234;2023-01-27T01:10:45;98648.00;;;0.12;82.58
66880;BME280;53789;51.392;10.234;2023-01-27T01:11:07;98645.53;;;0.11;83.13
66880;BME280;53789;51.392;10.234;2023-01-27T01:11:28;98643.06;;;0.09;82.95
66880;BME280;53789;51.392;10.234;2023-01-27T01:11:48;98639.31;;;0.10;82.98
66880;BME280;53789;51.392;10.234;2023-01-27T01:12:08;98641.44;;;0.08;83.44
66880;BME280;53789;51.392;10.234;2023-01-27T01:12:29;98657.66;;;0.08;83.13
66880;BME280;53789;51.392;10.234;2023-01-27T01:12:49;98646.00;;;0.08;83.33
66880;BME280;53789;51.392;10.234;2023-01-27T01:13:09;98647.28;;;0.05;82.29
66880;BME280;53789;51.392;10.234;2023-01-27T01:13:30;98645.63;;;0.04;82.68
66880;BME280;53789;51.392;10.234;2023-01-27T01:13:51;98646.69;;;0.03;82.88
66880;BME280;53789;51.392;10.234;2023-01-27T01:14:11;98641.50;;;0.01;82.49
66880;BME280;53789;51.392;10.234;2023-01-27T01:14:32;98646.91;;;0.01;82.20
66880;BME280;53789;51.392;10.234;2023-01-27T01:14:52;98647.72;;;0.02;82.91
66880;BME280;53789;51.392;10.234;2023-01-27T01:15:13;98652.31;;;0.01;83.19
66880;BME280;53789;51.392;10.234;2023-01-27T01:15:39;98647.94;;;0.00;83.20
66880;BME280;53789;51.392;10.234;2023-01-27T01:16:04;98643.16;;;0.02;83.81
66880;BME280;53789;51.392;10.234;2023-01-27T01:16:25;98643.97;;;0.03;83.04
66880;BME280;53789;51.392;10.234;2023-01-27T01:16:45;98641.28;;;0.03;84.29
66880;BME280;53789;51.392;10.234;2023-01-27T01:17:06;98642.94;;;0.04;83.65
66880;BME280;53789;51.392;10.234;2023-01-27T01:17:26;98647.28;;;0.05;83.25
66880;BME280;53789;51.392;10.234;2023-01-27T01:17:46;98642.09;;;0.03;82.83
66880;BME280;53789;51.392;10.234;2023-01-27T01:18:08;98651.03;;;0.04;83.35
66880;BME280;53789;51.392;10.234;2023-01-27T01:18:29;98644.56;;;0.05;82.85
66880;BME280;53789;51.392;10.234;2023-01-27T01:18:49;98646.22;;;0.06;82.81
66880;BME280;53789;51.392;10.234;2023-01-27T01:19:10;98648.94;;;0.06;84.28
66880;BME280;53789;51.392;10.234;2023-01-27T01:19:30;98646.22;;;0.06;84.16
66880;BME280;53789;51.392;10.234;2023-01-27T01:19:50;98640.00;;;0.05;83.91
66880;BME280;53789;51.392;10.234;2023-01-27T01:20:11;98647.88;;;0.07;83.95
66880;BME280;53789;51.392;10.234;2023-01-27T01:20:35;98642.47;;;0.07;83.64
66880;BME280;53789;51.392;10.234;2023-01-27T01:20:56;98643.28;;;0.08;83.03
66880;BME280;53789;51.392;10.234;2023-01-27T01:21:16;98645.19;;;0.07;83.44
66880;BME280;53789;51.392;10.234;2023-01-27T01:21:37;98646.84;;;0.08;84.26
66880;BME280;53789;51.392;10.234;2023-01-27T01:21:57;98646.84;;;0.08;82.89
66880;BME280;53789;51.392;10.234;2023-01-27T01:22:17;98647.66;;;0.09;83.52
66880;BME280;53789;51.392;10.234;2023-01-27T01:22:38;98643.28;;;0.08;83.63
66880;BME280;53789;51.392;10.234;2023-01-27T01:22:58;98652.25;;;0.08;84.24
66880;BME280;53789;51.392;10.234;2023-01-27T01:23:19;98646.84;;;0.08;82.97
66880;BME280;53789;51.392;10.234;2023-01-27T01:23:41;98646.84;;;0.08;82.86
66880;BME280;53789;51.392;10.234;2023-01-27T01:24:01;98645.19;;;0.07;83.29
66880;BME280;53789;51.392;10.234;2023-01-27T01:24:22;98651.41;;;0.08;82.88
66880;BME280;53789;51.392;10.234;2023-01-27T01:24:42;98643.28;;;0.08;83.84
66880;BME280;53789;51.392;10.234;2023-01-27T01:25:03;98651.19;;;0.09;83.11
66880;BME280;53789;51.392;10.234;2023-01-27T01:25:23;98648.47;;;0.09;83.09
66880;BME280;53789;51.392;10.234;2023-01-27T01:25:54;98647.88;;;0.07;83.64
66880;BME280;53789;51.392;10.234;2023-01-27T01:26:15;98650.59;;;0.07;83.54
66880;BME280;53789;51.392;10.234;2023-01-27T01:26:36;98644.34;;;0.07;83.46
66880;BME280;53789;51.392;10.234;2023-01-27T01:26:56;98654.34;;;0.06;82.27
66880;BME280;53789;51.392;10.234;2023-01-27T01:27:16;98655.16;;;0.07;82.35
66880;BME280;53789;51.392;10.234;2023-01-27T01:27:37;98656.00;;;0.07;83.76
66880;BME280;53789;51.392;10.234;2023-01-27T01:27:57;98653.53;;;0.05;82.89
66880;BME280;53789;51.392;10.234;2023-01-27T01:28:17;98646.44;;;0.04;83.36
66880;BME280;53789;51.392;10.234;2023-01-27T01:28:38;98651.84;;;0.04;83.95
66880;BME280;53789;51.392;10.234;2023-01-27T01:28:58;98651.84;;;0.04;83.45
66880;BME280;53789;51.392;10.234;2023-01-27T01:29:18;98652.69;;;0.05;83.48
66880;BME280;53789;51.392;10.234;2023-01-27T01:29:39;98660.22;;;0.03;82.93
66880;BME280;53789;51.392;10.234;2023-01-27T01:29:59;98661.88;;;0.04;83.64
66880;BME280;53789;51.392;10.234;2023-01-27T01:30:19;98656.47;;;0.04;83.04
66880;BME280;53789;51.392;10.234;2023-01-27T01:30:39;98661.03;;;0.03;83.11
66880;BME280;53789;51.392;10.234;2023-01-27T01:31:05;98661.88;;;0.04;83.03
66880;BME280;53789;51.392;10.234;2023-01-27T01:31:25;98661.88;;;0.04;83.02
66880;BME280;53789;51.392;10.234;2023-01-27T01:31:49;98670.78;;;0.04;84.02
66880;BME280;53789;51.392;10.234;2023-01-27T01:32:10;98661.88;;;0.04;83.74
66880;BME280;53789;51.392;10.234;2023-01-27T01:32:30;98656.47;;;0.04;83.47
66880;BME280;53789;51.392;10.234;2023-01-27T01:32:51;98658.94;;;0.05;83.63
66880;BME280;53789;51.392;10.234;2023-01-27T01:33:12;98657.84;;;0.07;84.15
66880;BME280;53789;51.392;10.234;2023-01-27T01:33:32;98656.00;;;0.07;83.65
66880;BME280;53789;51.392;10.234;2023-01-27T01:33:52;98666.81;;;0.07;83.76
66880;BME280;53789;51.392;10.234;2023-01-27T01:34:13;98666.81;;;0.07;83.89
66880;BME280;53789;51.392;10.234;2023-01-27T01:34:33;98665.16;;;0.06;84.04
66880;BME280;53789;51.392;10.234;2023-01-27T01:34:53;98662.22;;;0.08;83.10
66880;BME280;53789;51.392;10.234;2023-01-27T01:35:14;98665.78;;;0.08;83.59
66880;BME280;53789;51.392;10.234;2023-01-27T01:35:36;98659.50;;;0.08;83.41
66880;BME280;53789;51.392;10.234;2023-01-27T01:36:03;98665.97;;;0.07;84.06
66880;BME280;53789;51.392;10.234;2023-01-27T01:36:23;98666.81;;;0.07;82.67
66880;BME280;53789;51.392;10.234;2023-01-27T01:36:43;98657.84;;;0.07;83.80
66880;BME280;53789;51.392;10.234;2023-01-27T01:37:04;98668.47;;;0.08;83.56
66880;BME280;53789;51.392;10.234;2023-01-27T01:37:24;98665.16;;;0.06;83.07
66880;BME280;53789;51.392;10.234;2023-01-27T01:37:44;98663.50;;;0.05;83.14
66880;BME280;53789;51.392;10.234;2023-01-27T01:38:05;98660.56;;;0.07;82.83
66880;BME280;53789;51.392;10.234;2023-01-27T01:38:25;98663.25;;;0.07;83.50
66880;BME280;53789;51.392;10.234;2023-01-27T01:38:47;98655.38;;;0.05;83.24
66880;BME280;53789;51.392;10.234;2023-01-27T01:39:07;98660.56;;;0.07;82.99
66880;BME280;53789;51.392;10.234;2023-01-27T01:39:28;98667.88;;;0.06;83.12
66880;BME280;53789;51.392;10.234;2023-01-27T01:39:48;98660.56;;;0.07;83.03
66880;BME280;53789;51.392;10.234;2023-01-27T01:40:10;98659.75;;;0.06;83.19
66880;BME280;53789;51.392;10.234;2023-01-27T01:40:31;98660.56;;;0.07;82.64
66880;BME280;53789;51.392;10.234;2023-01-27T01:40:52;98659.75;;;0.06;83.16
66880;BME280;53789;51.392;10.234;2023-01-27T01:41:16;98671.63;;;0.05;84.10
66880;BME280;53789;51.392;10.234;2023-01-27T01:41:37;98662.69;;;0.04;83.52
66880;BME280;53789;51.392;10.234;2023-01-27T01:41:57;98662.69;;;0.04;83.40
66880;BME280;53789;51.392;10.234;2023-01-27T01:42:17;98660.22;;;0.03;82.77
66880;BME280;53789;51.392;10.234;2023-01-27T01:42:58;98660.22;;;0.03;83.49
66880;BME280;53789;51.392;10.234;2023-01-27T01:43:19;98652.09;;;0.03;83.78
66880;BME280;53789;51.392;10.234;2023-01-27T01:43:39;98656.47;;;0.04;83.62
66880;BME280;53789;51.392;10.234;2023-01-27T01:44:27;98661.25;;;0.02;83.88
66880;BME280;53789;51.392;10.234;2023-01-27T01:44:53;98657.72;;;0.01;83.51
66880;BME280;53789;51.392;10.234;2023-01-27T01:45:53;98659.84;;;-0.01;83.76
66880;BME280;53789;51.392;10.234;2023-01-27T01:46:15;98660.66;;;-0.00;83.32
66880;BME280;53789;51.392;10.234;2023-01-27T01:46:36;98660.66;;;-0.00;83.57
66880;BME280;53789;51.392;10.234;2023-01-27T01:46:57;98659.00;;;-0.01;83.21
66880;BME280;53789;51.392;10.234;2023-01-27T01:47:18;98654.44;;;-0.01;83.53
66880;BME280;53789;51.392;10.234;2023-01-27T01:47:38;98648.19;;;-0.01;82.62
66880;BME280;53789;51.392;10.234;2023-01-27T01:48:59;98657.38;;;-0.02;83.09
66880;BME280;53789;51.392;10.234;2023-01-27T01:49:32;98658.19;;;-0.02;83.32
66880;BME280;53789;51.392;10.234;2023-01-27T01:49:54;98657.13;;;-0.01;83.10
66880;BME280;53789;51.392;10.234;2023-01-27T01:50:14;98651.97;;;-0.02;83.57
66880;BME280;53789;51.392;10.234;2023-01-27T01:50:37;98657.38;;;-0.02;83.96
66880;BME280;53789;51.392;10.234;2023-01-27T01:51:31;98657.38;;;-0.02;84.13
66880;BME280;53789;51.392;10.234;2023-01-27T01:51:58;98656.53;;;-0.03;82.99
66880;BME280;53789;51.392;10.234;2023-01-27T01:52:20;98655.72;;;-0.03;83.88
66880;BME280;53789;51.392;10.234;2023-01-27T01:52:40;98661.13;;;-0.03;82.71
66880;BME280;53789;51.392;10.234;2023-01-27T01:53:04;98652.78;;;-0.02;83.93
66880;BME280;53789;51.392;10.234;2023-01-27T01:53:32;98656.28;;;-0.01;83.52